createdAt,value
2022-09-30T00:03:15.699Z,6.47
2022-09-30T00:08:18.583Z,5.93
2022-09-30T00:13:23.118Z,7.00
2022-09-30T00:18:25.961Z,9.15
2022-09-30T00:23:28.715Z,7.82
2022-09-30T00:28:33.098Z,7.72
2022-09-30T00:33:36.452Z,7.40
2022-09-30T00:38:39.254Z,7.38
2022-09-30T00:43:46.588Z,7.32
2022-09-30T00:54:00.960Z,10.85
2022-09-30T00:59:09.546Z,11.90
2022-09-30T01:04:15.454Z,9.95
2022-09-30T01:09:19.421Z,10.65
2022-09-30T01:14:27.490Z,9.07
2022-09-30T01:19:59.170Z,7.93
2022-09-30T01:25:48.140Z,7.22
2022-09-30T01:31:12.514Z,8.68
2022-09-30T01:36:30.103Z,7.78
2022-09-30T01:41:45.556Z,7.18
2022-09-30T01:46:57.786Z,7.47
2022-09-30T01:52:06.798Z,7.93
2022-09-30T01:57:17.971Z,7.90
2022-09-30T02:02:25.846Z,6.75
2022-09-30T02:07:34.693Z,5.95
2022-09-30T02:12:48.142Z,7.05
2022-09-30T02:17:54.019Z,5.93
2022-09-30T02:23:03.411Z,6.57
2022-09-30T02:28:10.061Z,5.63
2022-09-30T02:33:19.554Z,6.73
2022-09-30T02:38:28.557Z,5.90
2022-09-30T02:43:32.033Z,6.45
2022-09-30T02:48:46.147Z,6.03
2022-09-30T02:53:58.975Z,7.40
2022-09-30T02:59:02.101Z,7.13
2022-09-30T03:04:08.895Z,6.28
2022-09-30T03:09:11.896Z,5.97
2022-09-30T03:14:34.757Z,6.65
2022-09-30T03:19:57.393Z,7.75
2022-09-30T03:25:15.352Z,5.32
2022-09-30T03:30:24.539Z,5.35
2022-09-30T03:35:34.361Z,6.05
2022-09-30T03:40:45.218Z,6.97
2022-09-30T03:45:55.950Z,6.72
2022-09-30T03:51:02.095Z,6.78
2022-09-30T03:56:04.862Z,7.00
2022-09-30T04:01:07.680Z,7.53
2022-09-30T04:06:14.285Z,8.13
2022-09-30T04:11:17.602Z,7.23
2022-09-30T04:16:20.368Z,7.00
2022-09-30T04:21:24.613Z,6.68
2022-09-30T04:26:27.431Z,8.38
2022-09-30T04:31:30.323Z,7.60
2022-09-30T04:36:34.830Z,9.52
2022-09-30T04:41:38.286Z,8.20
2022-09-30T04:46:41.025Z,10.27
2022-09-30T04:51:46.185Z,10.20
2022-09-30T04:56:49.000Z,8.50
2022-09-30T05:01:51.770Z,8.68
2022-09-30T05:06:56.054Z,7.93
2022-09-30T05:11:59.533Z,7.20
2022-09-30T05:17:02.266Z,7.38
2022-09-30T05:22:06.436Z,7.07
2022-09-30T05:27:10.109Z,6.80
2022-09-30T05:32:12.859Z,7.97
2022-09-30T05:37:17.051Z,7.40
2022-09-30T05:42:22.189Z,11.23
2022-09-30T05:47:25.211Z,12.68
2022-09-30T05:52:30.480Z,8.35
2022-09-30T05:57:33.263Z,8.38
2022-09-30T06:02:38.463Z,6.07
2022-09-30T06:07:42.821Z,10.15
2022-09-30T06:12:45.635Z,7.20
2022-09-30T06:17:53.363Z,9.05
2022-09-30T06:23:00.174Z,8.50
2022-09-30T06:28:03.561Z,13.00
2022-09-30T06:33:06.356Z,10.80
2022-09-30T06:38:10.599Z,10.32
2022-09-30T06:43:14.413Z,9.27
2022-09-30T06:48:26.312Z,18.55
2022-09-30T06:53:35.524Z,17.17
2022-09-30T06:58:40.369Z,12.10
2022-09-30T07:03:46.009Z,17.67
2022-09-30T07:08:50.595Z,12.05
2022-09-30T07:13:54.295Z,10.73
2022-09-30T07:18:58.064Z,12.68
2022-09-30T07:24:02.847Z,13.02
2022-09-30T07:29:07.219Z,13.48
2022-09-30T07:34:10.646Z,10.45
2022-09-30T07:39:15.428Z,9.30
2022-09-30T07:44:18.594Z,8.55
2022-09-30T07:49:25.936Z,9.88
2022-09-30T07:54:31.946Z,16.90
2022-09-30T08:00:11.813Z,13.02
2022-09-30T08:05:23.000Z,11.32
2022-09-30T08:10:27.724Z,15.00
2022-09-30T08:15:31.241Z,14.75
2022-09-30T08:20:34.929Z,13.48
2022-09-30T08:25:39.341Z,12.32
2022-09-30T08:30:42.637Z,12.02
2022-09-30T08:35:45.443Z,10.95
2022-09-30T08:41:00.208Z,11.00
2022-09-30T08:46:10.730Z,11.32
2022-09-30T08:51:29.661Z,9.82
2022-09-30T08:56:36.491Z,9.60
2022-09-30T09:01:47.579Z,10.52
2022-09-30T09:06:59.758Z,9.07
2022-09-30T09:12:22.519Z,10.43
2022-09-30T09:17:38.098Z,12.23
2022-09-30T09:22:41.846Z,11.55
2022-09-30T09:27:52.516Z,12.60
2022-09-30T09:33:23.217Z,14.52
2022-09-30T09:38:35.902Z,14.07
2022-09-30T09:43:58.298Z,12.05
2022-09-30T09:49:31.289Z,12.27
2022-09-30T09:54:42.298Z,13.50
2022-09-30T10:05:33.270Z,14.20
2022-09-30T10:10:45.424Z,11.70
2022-09-30T10:15:51.554Z,10.00
2022-09-30T10:20:58.694Z,9.57
2022-09-30T10:26:05.000Z,11.68
2022-09-30T10:31:15.334Z,8.93
2022-09-30T10:36:22.876Z,8.90
2022-09-30T10:41:29.868Z,9.75
2022-09-30T10:46:39.143Z,9.05
2022-09-30T10:51:46.964Z,8.18
2022-09-30T10:56:53.422Z,6.85
2022-09-30T11:02:06.604Z,33.25
2022-09-30T11:07:22.745Z,6.38
2022-09-30T11:12:33.562Z,7.60
2022-09-30T11:17:43.800Z,4.60
2022-09-30T11:22:53.843Z,4.82
2022-09-30T11:28:16.750Z,4.97
2022-09-30T11:33:36.137Z,4.03
2022-09-30T11:38:53.671Z,4.45
2022-09-30T11:44:06.379Z,3.15
2022-09-30T11:49:29.816Z,2.22
2022-09-30T11:54:44.769Z,2.45
2022-09-30T11:59:53.833Z,2.92
2022-09-30T12:05:01.533Z,2.10
2022-09-30T12:10:15.745Z,2.25
2022-09-30T12:15:21.337Z,2.08
2022-09-30T12:20:30.162Z,2.23
2022-09-30T12:25:37.946Z,1.90
2022-09-30T12:30:41.534Z,1.98
2022-09-30T12:36:10.606Z,1.73
2022-09-30T12:41:32.246Z,2.03
2022-09-30T12:46:53.803Z,2.08
2022-09-30T12:52:00.979Z,1.95
2022-09-30T12:57:09.202Z,1.27
2022-09-30T13:02:30.289Z,1.70
2022-09-30T13:07:34.596Z,1.50
2022-09-30T13:12:45.862Z,1.70
2022-09-30T13:17:49.570Z,1.33
2022-09-30T13:23:00.887Z,1.05
2022-09-30T13:28:30.419Z,2.08
2022-09-30T13:33:44.919Z,1.50
2022-09-30T13:39:07.873Z,1.58
2022-09-30T13:44:17.991Z,1.80
2022-09-30T13:49:25.422Z,1.30
2022-09-30T13:54:34.004Z,1.33
2022-09-30T13:59:57.178Z,1.20
2022-09-30T14:05:17.329Z,1.30
2022-09-30T14:10:44.028Z,1.25
2022-09-30T14:16:19.263Z,0.93
2022-09-30T14:21:36.615Z,0.80
2022-09-30T14:27:00.803Z,1.20
2022-09-30T14:32:12.442Z,1.13
2022-09-30T14:37:21.467Z,1.02
2022-09-30T14:42:31.218Z,0.98
2022-09-30T14:47:37.535Z,1.00
2022-09-30T14:52:45.139Z,2.13
2022-09-30T14:57:50.085Z,1.10
2022-09-30T15:02:52.893Z,1.10
2022-09-30T15:07:55.744Z,1.20
2022-09-30T15:13:00.638Z,1.17
2022-09-30T15:18:24.006Z,0.90
2022-09-30T15:23:29.830Z,1.30
2022-09-30T15:28:35.059Z,1.10
2022-09-30T15:33:37.878Z,1.05
2022-09-30T15:38:41.015Z,1.40
2022-09-30T15:43:50.297Z,1.60
2022-09-30T15:48:53.379Z,1.00
2022-09-30T15:53:58.012Z,1.42
2022-09-30T15:59:04.243Z,0.93
2022-09-30T16:04:14.305Z,1.75
2022-09-30T16:09:24.670Z,2.60
2022-09-30T16:14:30.769Z,1.17
2022-09-30T16:19:33.839Z,1.58
2022-09-30T16:24:48.880Z,1.30
2022-09-30T16:29:53.055Z,3.17
2022-09-30T16:34:56.133Z,4.85
2022-09-30T16:40:11.354Z,2.90
2022-09-30T16:45:16.199Z,3.00
2022-09-30T16:50:32.284Z,3.28
2022-09-30T16:55:35.153Z,2.67
2022-09-30T17:00:42.790Z,1.33
2022-09-30T17:05:52.985Z,2.35
2022-09-30T17:10:57.776Z,1.45
2022-09-30T17:16:02.685Z,1.40
2022-09-30T17:21:05.863Z,2.53
2022-09-30T17:26:08.655Z,2.55
2022-09-30T17:31:12.961Z,2.42
2022-09-30T17:36:15.905Z,3.85
2022-09-30T17:41:36.270Z,18.48
2022-09-30T17:46:46.066Z,7.05
2022-09-30T17:51:49.370Z,22.55
2022-09-30T17:56:52.127Z,6.35
2022-09-30T18:01:57.275Z,4.95
2022-09-30T18:07:00.096Z,5.65
2022-09-30T18:12:04.487Z,4.20
2022-09-30T18:17:08.509Z,2.45
2022-09-30T18:22:12.086Z,3.67
2022-09-30T18:27:15.077Z,3.17
2022-09-30T18:32:19.266Z,2.65
2022-09-30T18:37:21.990Z,3.03
2022-09-30T18:42:24.789Z,4.13
2022-09-30T18:47:28.821Z,4.65
2022-09-30T18:52:31.618Z,3.50
2022-09-30T18:57:34.695Z,3.25
2022-09-30T19:02:40.184Z,4.28
2022-09-30T19:07:43.825Z,7.57
2022-09-30T19:12:46.899Z,7.88
2022-09-30T19:17:53.598Z,8.90
2022-09-30T19:22:56.536Z,11.43
2022-09-30T19:28:00.253Z,11.95
2022-09-30T19:33:05.217Z,11.93
2022-09-30T19:38:09.261Z,12.10
2022-09-30T19:43:12.006Z,13.20
2022-09-30T19:48:16.148Z,16.58
2022-09-30T19:53:29.204Z,22.65
2022-09-30T19:58:35.167Z,23.55
2022-09-30T20:03:40.641Z,32.40
2022-09-30T20:08:45.750Z,36.47
2022-09-30T20:13:51.131Z,47.08
2022-09-30T20:18:55.785Z,31.70
2022-09-30T20:23:59.780Z,22.92
2022-09-30T20:29:02.665Z,25.23
2022-09-30T20:34:06.869Z,25.20
2022-09-30T20:39:10.583Z,23.80
2022-09-30T20:44:14.122Z,26.45
2022-09-30T20:49:18.238Z,22.50
2022-09-30T20:54:22.471Z,16.88
2022-09-30T20:59:25.318Z,14.70
2022-09-30T21:04:29.458Z,14.05
2022-09-30T21:09:34.789Z,11.73
2022-09-30T21:14:38.713Z,11.15
2022-09-30T21:19:43.626Z,10.88
2022-09-30T21:24:47.701Z,11.13
2022-09-30T21:29:50.472Z,8.30
2022-09-30T21:34:56.811Z,6.88
2022-09-30T21:39:59.579Z,6.00
2022-09-30T21:45:02.556Z,6.05
2022-09-30T21:50:07.968Z,5.78
2022-09-30T21:55:13.272Z,5.70
2022-09-30T22:00:16.609Z,4.55
2022-09-30T22:05:20.752Z,4.75
2022-09-30T22:10:23.530Z,4.70
2022-09-30T22:15:26.985Z,4.07
2022-09-30T22:20:31.124Z,4.40
2022-09-30T22:25:33.827Z,3.78
2022-09-30T22:30:36.661Z,4.18
2022-09-30T22:35:58.666Z,4.40
2022-09-30T22:41:01.800Z,4.00
2022-09-30T22:46:06.011Z,3.53
2022-09-30T22:51:15.498Z,3.55
2022-09-30T22:56:18.567Z,3.50
2022-09-30T23:01:21.613Z,3.72
2022-09-30T23:06:25.923Z,4.18
2022-09-30T23:11:28.741Z,3.15
2022-09-30T23:16:31.826Z,3.92
2022-09-30T23:21:36.551Z,3.80
2022-09-30T23:26:40.236Z,3.30
2022-09-30T23:31:43.433Z,3.95
2022-09-30T23:36:47.482Z,3.45
2022-09-30T23:41:51.025Z,3.47
2022-09-30T23:47:11.133Z,3.20
2022-09-30T23:52:15.830Z,4.10
2022-09-30T23:57:18.610Z,3.05
